sensor_id;sensor_type;location;lat;lon;timestamp;pressure;altitude;pressure_sealevel;temperature;humidity
46690;BME280;32423;45.398;10.874;2023-02-21T00:00:33;101511.66;;;8.58;71.60
46690;BME280;32423;45.398;10.874;2023-02-21T00:03:43;101512.50;;;8.87;72.42
46690;BME280;32423;45.398;10.874;2023-02-21T00:06:55;101511.41;;;9.70;67.77
46690;BME280;32423;45.398;10.874;2023-02-21T00:10:06;101515.09;;;10.21;66.00
46690;BME280;32423;45.398;10.874;2023-02-21T00:13:17;101500.72;;;10.40;64.59
46690;BME280;32423;45.398;10.874;2023-02-21T00:16:28;101496.28;;;10.62;62.78
46690;BME280;32423;45.398;10.874;2023-02-21T00:19:39;101492.66;;;10.67;61.42
46690;BME280;32423;45.398;10.874;2023-02-21T00:22:50;101493.91;;;10.75;61.26
46690;BME280;32423;45.398;10.874;2023-02-21T00:26:02;101489.50;;;10.92;60.66
46690;BME280;32423;45.398;10.874;2023-02-21T00:29:13;101494.88;;;10.97;60.82
46690;BME280;32423;45.398;10.874;2023-02-21T00:32:25;101478.44;;;11.02;60.41
46690;BME280;32423;45.398;10.874;2023-02-21T00:35:33;101477.31;;;10.76;60.91
46690;BME280;32423;45.398;10.874;2023-02-21T00:38:44;101483.31;;;10.73;60.72
46690;BME280;32423;45.398;10.874;2023-02-21T00:41:55;101481.50;;;10.68;62.92
46690;BME280;32423;45.398;10.874;2023-02-21T00:45:06;101479.66;;;10.64;61.97
46690;BME280;32423;45.398;10.874;2023-02-21T00:48:14;101463.31;;;10.32;63.04
46690;BME280;32423;45.398;10.874;2023-02-21T00:51:29;101474.50;;;10.81;61.55
46690;BME280;32423;45.398;10.874;2023-02-21T00:54:40;101470.06;;;10.85;61.49
46690;BME280;32423;45.398;10.874;2023-02-21T00:57:51;101467.34;;;10.85;62.51
46690;BME280;32423;45.398;10.874;2023-02-21T01:01:01;101468.78;;;10.64;63.37
46690;BME280;32423;45.398;10.874;2023-02-21T01:04:10;101466.31;;;10.49;64.58
46690;BME280;32423;45.398;10.874;2023-02-21T01:07:21;101457.88;;;10.32;65.07
46690;BME280;32423;45.398;10.874;2023-02-21T01:10:32;101460.56;;;9.94;65.71
46690;BME280;32423;45.398;10.874;2023-02-21T01:13:43;101461.38;;;9.95;66.26
46690;BME280;32423;45.398;10.874;2023-02-21T01:16:54;101464.84;;;10.00;65.25
46690;BME280;32423;45.398;10.874;2023-02-21T01:20:05;101459.34;;;10.05;66.01
46690;BME280;32423;45.398;10.874;2023-02-21T01:23:16;101462.19;;;10.14;65.72
46690;BME280;32423;45.398;10.874;2023-02-21T01:26:27;101459.50;;;10.33;64.78
46690;BME280;32423;45.398;10.874;2023-02-21T01:29:40;101458.38;;;10.15;65.09
46690;BME280;32423;45.398;10.874;2023-02-21T01:32:48;101450.78;;;9.03;70.25
46690;BME280;32423;45.398;10.874;2023-02-21T01:35:59;101447.38;;;9.40;69.48
46690;BME280;32423;45.398;10.874;2023-02-21T01:39:10;101445.19;;;9.42;68.67
46690;BME280;32423;45.398;10.874;2023-02-21T01:42:21;101451.72;;;9.65;68.25
46690;BME280;32423;45.398;10.874;2023-02-21T01:45:46;101441.16;;;10.01;65.77
46690;BME280;32423;45.398;10.874;2023-02-21T01:48:59;101447.59;;;10.10;65.10
46690;BME280;32423;45.398;10.874;2023-02-21T01:52:11;101436.72;;;10.10;64.23
46690;BME280;32423;45.398;10.874;2023-02-21T01:55:22;101434.81;;;10.10;63.72
46690;BME280;32423;45.398;10.874;2023-02-21T01:58:35;101439.81;;;9.61;64.25
46690;BME280;32423;45.398;10.874;2023-02-21T02:01:50;101436.81;;;9.62;65.10
46690;BME280;32423;45.398;10.874;2023-02-21T02:05:02;101434.34;;;9.84;64.16
46690;BME280;32423;45.398;10.874;2023-02-21T02:08:14;101429.50;;;9.81;63.93
46690;BME280;32423;45.398;10.874;2023-02-21T02:15:23;101423.97;;;9.86;64.13
46690;BME280;32423;45.398;10.874;2023-02-21T02:27:50;101414.16;;;10.28;61.82
46690;BME280;32423;45.398;10.874;2023-02-21T02:31:16;101426.44;;;10.25;61.34
46690;BME280;32423;45.398;10.874;2023-02-21T02:34:45;101409.59;;;9.86;61.40
46690;BME280;32423;45.398;10.874;2023-02-21T02:37:58;101411.81;;;9.84;60.24
46690;BME280;32423;45.398;10.874;2023-02-21T02:41:06;101408.41;;;9.31;62.72
46690;BME280;32423;45.398;10.874;2023-02-21T02:44:06;101406.50;;;9.31;62.34
46690;BME280;32423;45.398;10.874;2023-02-21T02:47:08;101403.41;;;9.19;63.51
46690;BME280;32423;45.398;10.874;2023-02-21T02:50:03;101402.22;;;9.49;64.17
46690;BME280;32423;45.398;10.874;2023-02-21T02:52:57;101398.97;;;9.28;63.83
46690;BME280;32423;45.398;10.874;2023-02-21T02:56:09;101397.44;;;9.17;63.67
46690;BME280;32423;45.398;10.874;2023-02-21T02:59:12;101392.50;;;9.24;63.83
46690;BME280;32423;45.398;10.874;2023-02-21T03:05:10;101394.34;;;9.29;64.87
46690;BME280;32423;45.398;10.874;2023-02-21T03:08:13;101394.69;;;9.22;65.20
46690;BME280;32423;45.398;10.874;2023-02-21T03:14:08;101390.63;;;8.96;65.84
46690;BME280;32423;45.398;10.874;2023-02-21T03:17:07;101378.34;;;9.04;65.50
46690;BME280;32423;45.398;10.874;2023-02-21T03:20:04;101373.78;;;8.99;64.29
46690;BME280;32423;45.398;10.874;2023-02-21T03:23:03;101379.97;;;8.52;65.99
46690;BME280;32423;45.398;10.874;2023-02-21T03:25:59;101378.53;;;8.59;66.29
46690;BME280;32423;45.398;10.874;2023-02-21T03:28:54;101379.28;;;8.65;65.52
46690;BME280;32423;45.398;10.874;2023-02-21T03:31:50;101375.09;;;8.49;66.20
46690;BME280;32423;45.398;10.874;2023-02-21T03:34:47;101375.13;;;8.44;66.63
46690;BME280;32423;45.398;10.874;2023-02-21T03:37:44;101379.00;;;8.67;65.53
46690;BME280;32423;45.398;10.874;2023-02-21T03:40:36;101370.25;;;8.46;64.72
46690;BME280;32423;45.398;10.874;2023-02-21T03:43:28;101366.88;;;8.59;64.12
46690;BME280;32423;45.398;10.874;2023-02-21T03:46:22;101363.06;;;8.31;65.26
46690;BME280;32423;45.398;10.874;2023-02-21T03:49:12;101364.97;;;8.59;65.00
46690;BME280;32423;45.398;10.874;2023-02-21T03:52:04;101363.72;;;8.76;64.69
46690;BME280;32423;45.398;10.874;2023-02-21T03:54:58;101364.53;;;9.00;63.53
46690;BME280;32423;45.398;10.874;2023-02-21T03:57:53;101368.88;;;9.01;62.84
46690;BME280;32423;45.398;10.874;2023-02-21T04:00:47;101368.41;;;8.94;63.49
46690;BME280;32423;45.398;10.874;2023-02-21T04:03:42;101358.72;;;8.59;63.81
46690;BME280;32423;45.398;10.874;2023-02-21T04:06:34;101359.16;;;8.71;64.21
46690;BME280;32423;45.398;10.874;2023-02-21T04:09:29;101361.78;;;8.81;63.98
46690;BME280;32423;45.398;10.874;2023-02-21T04:12:23;101364.25;;;8.78;64.26
46690;BME280;32423;45.398;10.874;2023-02-21T04:15:18;101370.78;;;9.00;62.81
46690;BME280;32423;45.398;10.874;2023-02-21T04:18:10;101370.41;;;6.38;68.99
46690;BME280;32423;45.398;10.874;2023-02-21T04:21:05;101370.88;;;5.02;76.59
46690;BME280;32423;45.398;10.874;2023-02-21T04:24:00;101372.81;;;5.16;78.57
46690;BME280;32423;45.398;10.874;2023-02-21T04:26:55;101370.59;;;5.03;81.42
46690;BME280;32423;45.398;10.874;2023-02-21T04:29:51;101377.09;;;5.07;81.97
46690;BME280;32423;45.398;10.874;2023-02-21T04:32:45;101368.91;;;5.59;82.09
46690;BME280;32423;45.398;10.874;2023-02-21T04:35:40;101371.22;;;6.38;80.70
46690;BME280;32423;45.398;10.874;2023-02-21T04:38:41;101363.91;;;6.54;78.75
46690;BME280;32423;45.398;10.874;2023-02-21T04:41:36;101349.50;;;6.94;73.71
46690;BME280;32423;45.398;10.874;2023-02-21T04:44:31;101351.69;;;6.82;74.11
46690;BME280;32423;45.398;10.874;2023-02-21T04:47:23;101348.84;;;7.17;70.37
46690;BME280;32423;45.398;10.874;2023-02-21T04:50:18;101350.78;;;7.66;68.83
46690;BME280;32423;45.398;10.874;2023-02-21T04:53:12;101356.78;;;8.02;67.88
46690;BME280;32423;45.398;10.874;2023-02-21T04:56:07;101352.50;;;8.25;66.83
46690;BME280;32423;45.398;10.874;2023-02-21T04:58:59;101343.97;;;8.12;65.88
46690;BME280;32423;45.398;10.874;2023-02-21T05:01:49;101344.28;;;8.06;64.82
46690;BME280;32423;45.398;10.874;2023-02-21T05:04:43;101344.34;;;7.52;66.55
46690;BME280;32423;45.398;10.874;2023-02-21T05:07:39;101353.63;;;7.85;66.76
46690;BME280;32423;45.398;10.874;2023-02-21T05:10:29;101351.63;;;8.00;66.02
46690;BME280;32423;45.398;10.874;2023-02-21T05:13:21;101339.00;;;7.86;67.59
46690;BME280;32423;45.398;10.874;2023-02-21T05:16:11;101338.09;;;8.00;67.72
46690;BME280;32423;45.398;10.874;2023-02-21T05:19:05;101339.28;;;8.18;67.08
46690;BME280;32423;45.398;10.874;2023-02-21T05:21:59;101338.66;;;7.97;67.54
46690;BME280;32423;45.398;10.874;2023-02-21T05:24:50;101334.78;;;7.69;67.37
46690;BME280;32423;45.398;10.874;2023-02-21T05:27:42;101332.94;;;7.60;68.47
46690;BME280;32423;45.398;10.874;2023-02-21T05:30:32;101329.81;;;7.87;68.13
46690;BME280;32423;45.398;10.874;2023-02-21T05:33:26;101321.88;;;7.95;67.61
46690;BME280;32423;45.398;10.874;2023-02-21T05:36:18;101325.38;;;8.01;68.26
46690;BME280;32423;45.398;10.874;2023-02-21T05:39:13;101327.22;;;8.05;66.71
46690;BME280;32423;45.398;10.874;2023-02-21T05:42:08;101320.88;;;8.20;66.91
46690;BME280;32423;45.398;10.874;2023-02-21T05:45:00;101331.41;;;8.22;65.91
46690;BME280;32423;45.398;10.874;2023-02-21T05:47:53;101328.13;;;8.25;67.07
46690;BME280;32423;45.398;10.874;2023-02-21T05:50:49;101325.50;;;8.14;66.93
46690;BME280;32423;45.398;10.874;2023-02-21T05:53:41;101323.63;;;8.15;66.12
46690;BME280;32423;45.398;10.874;2023-02-21T05:56:37;101324.19;;;7.73;66.75
46690;BME280;32423;45.398;10.874;2023-02-21T05:59:32;101323.06;;;7.79;67.30
46690;BME280;32423;45.398;10.874;2023-02-21T06:02:27;101325.75;;;7.84;66.21
46690;BME280;32423;45.398;10.874;2023-02-21T06:05:22;101327.75;;;7.68;67.47
46690;BME280;32423;45.398;10.874;2023-02-21T06:08:14;101325.81;;;7.30;68.91
46690;BME280;32423;45.398;10.874;2023-02-21T06:11:09;101337.22;;;7.17;69.05
46690;BME280;32423;45.398;10.874;2023-02-21T06:14:03;101330.47;;;7.14;69.63
46690;BME280;32423;45.398;10.874;2023-02-21T06:16:59;101330.16;;;7.26;68.58
46690;BME280;32423;45.398;10.874;2023-02-21T06:19:56;101328.84;;;7.18;68.49
46690;BME280;32423;45.398;10.874;2023-02-21T06:22:46;101335.06;;;7.19;68.61
46690;BME280;32423;45.398;10.874;2023-02-21T06:25:37;101334.09;;;7.49;67.26
46690;BME280;32423;45.398;10.874;2023-02-21T06:28:32;101336.00;;;7.43;67.45
46690;BME280;32423;45.398;10.874;2023-02-21T06:31:27;101335.78;;;7.40;67.96
46690;BME280;32423;45.398;10.874;2023-02-21T06:34:21;101343.47;;;7.07;68.96
46690;BME280;32423;45.398;10.874;2023-02-21T06:37:33;101343.81;;;6.96;69.92
46690;BME280;32423;45.398;10.874;2023-02-21T06:40:28;101347.06;;;6.93;70.13
46690;BME280;32423;45.398;10.874;2023-02-21T06:43:20;101347.00;;;7.08;68.31
46690;BME280;32423;45.398;10.874;2023-02-21T06:46:17;101361.22;;;7.34;68.59
46690;BME280;32423;45.398;10.874;2023-02-21T06:49:12;101354.38;;;7.51;67.04
46690;BME280;32423;45.398;10.874;2023-02-21T06:52:04;101363.59;;;7.50;67.13
46690;BME280;32423;45.398;10.874;2023-02-21T06:54:52;101362.69;;;7.65;66.64
46690;BME280;32423;45.398;10.874;2023-02-21T06:57:46;101370.97;;;7.84;66.54
46690;BME280;32423;45.398;10.874;2023-02-21T07:00:38;101371.56;;;7.76;66.11
46690;BME280;32423;45.398;10.874;2023-02-21T07:03:30;101367.91;;;7.56;66.55
46690;BME280;32423;45.398;10.874;2023-02-21T07:06:25;101376.00;;;7.56;67.42
46690;BME280;32423;45.398;10.874;2023-02-21T07:09:17;101379.78;;;7.60;68.38
46690;BME280;32423;45.398;10.874;2023-02-21T07:12:12;101370.97;;;7.35;68.70
46690;BME280;32423;45.398;10.874;2023-02-21T07:15:06;101390.09;;;6.64;70.81
46690;BME280;32423;45.398;10.874;2023-02-21T07:18:01;101387.41;;;6.33;71.88
46690;BME280;32423;45.398;10.874;2023-02-21T07:20:55;101386.53;;;5.82;73.71
46690;BME280;32423;45.398;10.874;2023-02-21T07:23:50;101396.56;;;5.97;73.74
46690;BME280;32423;45.398;10.874;2023-02-21T07:26:42;101406.03;;;6.30;72.73
46690;BME280;32423;45.398;10.874;2023-02-21T07:29:36;101406.84;;;6.56;72.56
46690;BME280;32423;45.398;10.874;2023-02-21T07:32:31;101404.94;;;6.76;70.65
46690;BME280;32423;45.398;10.874;2023-02-21T07:35:23;101409.28;;;6.47;70.19
46690;BME280;32423;45.398;10.874;2023-02-21T07:38:23;101409.00;;;6.64;71.17
46690;BME280;32423;45.398;10.874;2023-02-21T07:41:18;101409.81;;;6.14;73.29
46690;BME280;32423;45.398;10.874;2023-02-21T07:44:12;101409.63;;;5.43;76.42
46690;BME280;32423;45.398;10.874;2023-02-21T07:47:06;101408.44;;;5.29;78.44
46690;BME280;32423;45.398;10.874;2023-02-21T07:50:01;101402.91;;;5.55;77.68
46690;BME280;32423;45.398;10.874;2023-02-21T07:52:56;101402.66;;;5.62;77.21
46690;BME280;32423;45.398;10.874;2023-02-21T07:55:50;101407.84;;;5.84;77.40
46690;BME280;32423;45.398;10.874;2023-02-21T07:58:45;101408.63;;;5.74;78.58
46690;BME280;32423;45.398;10.874;2023-02-21T08:01:39;101411.56;;;5.57;78.93
46690;BME280;32423;45.398;10.874;2023-02-21T08:04:31;101411.25;;;5.59;79.64
46690;BME280;32423;45.398;10.874;2023-02-21T08:07:26;101414.56;;;5.71;80.72
46690;BME280;32423;45.398;10.874;2023-02-21T08:10:27;101410.34;;;6.21;78.51
46690;BME280;32423;45.398;10.874;2023-02-21T08:13:20;101415.25;;;6.34;79.15
46690;BME280;32423;45.398;10.874;2023-02-21T08:16:12;101401.44;;;6.56;77.55
46690;BME280;32423;45.398;10.874;2023-02-21T08:19:06;101408.41;;;5.91;80.59
46690;BME280;32423;45.398;10.874;2023-02-21T08:22:00;101411.69;;;6.84;80.29
46690;BME280;32423;45.398;10.874;2023-02-21T08:24:53;101411.16;;;7.66;76.29
46690;BME280;32423;45.398;10.874;2023-02-21T08:27:45;101405.00;;;8.39;72.73
46690;BME280;32423;45.398;10.874;2023-02-21T08:30:37;101404.94;;;8.78;70.20
46690;BME280;32423;45.398;10.874;2023-02-21T08:33:29;101407.91;;;7.64;73.46
46690;BME280;32423;45.398;10.874;2023-02-21T08:36:21;101407.50;;;7.27;76.61
46690;BME280;32423;45.398;10.874;2023-02-21T08:39:16;101419.81;;;6.74;77.93
46690;BME280;32423;45.398;10.874;2023-02-21T08:42:13;101423.34;;;6.69;79.36
46690;BME280;32423;45.398;10.874;2023-02-21T08:45:08;101420.63;;;6.29;81.15
46690;BME280;32423;45.398;10.874;2023-02-21T08:48:07;101421.72;;;6.38;81.35
46690;BME280;32423;45.398;10.874;2023-02-21T08:51:02;101419.56;;;6.55;81.30
46690;BME280;32423;45.398;10.874;2023-02-21T08:53:56;101423.88;;;6.36;82.64
46690;BME280;32423;45.398;10.874;2023-02-21T08:56:48;101416.56;;;6.31;83.08
46690;BME280;32423;45.398;10.874;2023-02-21T08:59:46;101420.63;;;6.34;84.24
46690;BME280;32423;45.398;10.874;2023-02-21T09:02:43;101417.94;;;6.69;82.99
46690;BME280;32423;45.398;10.874;2023-02-21T09:05:38;101423.50;;;7.13;80.78
46690;BME280;32423;45.398;10.874;2023-02-21T09:08:33;101421.31;;;7.85;78.54
46690;BME280;32423;45.398;10.874;2023-02-21T09:11:27;101423.94;;;8.00;76.77
46690;BME280;32423;45.398;10.874;2023-02-21T09:14:22;101412.66;;;8.32;74.86
46690;BME280;32423;45.398;10.874;2023-02-21T09:17:14;101412.75;;;8.50;74.61
46690;BME280;32423;45.398;10.874;2023-02-21T09:20:11;101420.25;;;8.92;73.19
46690;BME280;32423;45.398;10.874;2023-02-21T09:23:06;101416.69;;;8.34;74.26
46690;BME280;32423;45.398;10.874;2023-02-21T09:26:01;101419.06;;;8.02;77.51
46690;BME280;32423;45.398;10.874;2023-02-21T09:28:55;101419.44;;;8.63;75.00
46690;BME280;32423;45.398;10.874;2023-02-21T09:31:50;101421.09;;;8.59;75.60
46690;BME280;32423;45.398;10.874;2023-02-21T09:34:44;101424.00;;;8.68;74.76
46690;BME280;32423;45.398;10.874;2023-02-21T09:37:40;101417.59;;;7.76;78.04
46690;BME280;32423;45.398;10.874;2023-02-21T09:40:54;101418.03;;;7.88;79.78
46690;BME280;32423;45.398;10.874;2023-02-21T09:43:53;101420.72;;;7.93;78.96
46690;BME280;32423;45.398;10.874;2023-02-21T09:46:48;101409.81;;;8.03;77.85
46690;BME280;32423;45.398;10.874;2023-02-21T09:49:41;101416.38;;;7.97;79.47
46690;BME280;32423;45.398;10.874;2023-02-21T09:52:38;101409.38;;;8.64;77.47
46690;BME280;32423;45.398;10.874;2023-02-21T09:55:30;101414.75;;;8.69;77.18
46690;BME280;32423;45.398;10.874;2023-02-21T09:58:26;101416.31;;;8.07;78.95
46690;BME280;32423;45.398;10.874;2023-02-21T10:08:16;101415.69;;;9.35;73.83
46690;BME280;32423;45.398;10.874;2023-02-21T10:11:36;101411.75;;;9.89;73.33
46690;BME280;32423;45.398;10.874;2023-02-21T10:18:08;101405.41;;;9.94;71.49
46690;BME280;32423;45.398;10.874;2023-02-21T10:21:12;101415.63;;;9.83;73.82
46690;BME280;32423;45.398;10.874;2023-02-21T10:24:12;101406.22;;;9.94;73.01
46690;BME280;32423;45.398;10.874;2023-02-21T10:27:09;101410.91;;;10.07;72.21
46690;BME280;32423;45.398;10.874;2023-02-21T10:30:10;101410.94;;;10.58;70.06
46690;BME280;32423;45.398;10.874;2023-02-21T10:33:09;101412.69;;;9.98;72.81
46690;BME280;32423;45.398;10.874;2023-02-21T10:36:01;101397.41;;;10.02;72.54
46690;BME280;32423;45.398;10.874;2023-02-21T10:39:00;101407.16;;;10.73;70.77
46690;BME280;32423;45.398;10.874;2023-02-21T10:41:57;101416.09;;;11.06;69.26
46690;BME280;32423;45.398;10.874;2023-02-21T10:44:51;101395.53;;;10.54;70.12
46690;BME280;32423;45.398;10.874;2023-02-21T10:47:55;101400.94;;;10.40;71.33
46690;BME280;32423;45.398;10.874;2023-02-21T10:51:27;101406.75;;;10.34;71.02
46690;BME280;32423;45.398;10.874;2023-02-21T10:54:26;101402.50;;;10.60;70.70
46690;BME280;32423;45.398;10.874;2023-02-21T10:57:18;101394.16;;;10.38;71.61
46690;BME280;32423;45.398;10.874;2023-02-21T11:00:10;101398.41;;;10.76;70.42
46690;BME280;32423;45.398;10.874;2023-02-21T11:06:07;101395.25;;;10.69;71.32
46690;BME280;32423;45.398;10.874;2023-02-21T11:09:30;101374.66;;;10.49;71.73
46690;BME280;32423;45.398;10.874;2023-02-21T11:12:26;101383.47;;;10.60;71.47
46690;BME280;32423;45.398;10.874;2023-02-21T11:15:20;101382.53;;;10.51;71.35
46690;BME280;32423;45.398;10.874;2023-02-21T11:18:19;101383.09;;;10.66;70.93
46690;BME280;32423;45.398;10.874;2023-02-21T11:21:17;101375.31;;;10.60;71.59
46690;BME280;32423;45.398;10.874;2023-02-21T11:24:13;101366.88;;;10.75;70.70
46690;BME280;32423;45.398;10.874;2023-02-21T11:27:05;101363.44;;;10.83;70.37
46690;BME280;32423;45.398;10.874;2023-02-21T11:29:57;101357.19;;;10.83;70.47
46690;BME280;32423;45.398;10.874;2023-02-21T11:32:56;101361.63;;;10.92;70.45
46690;BME280;32423;45.398;10.874;2023-02-21T11:35:52;101351.25;;;10.94;69.81
46690;BME280;32423;45.398;10.874;2023-02-21T11:39:07;101345.91;;;11.03;69.60
46690;BME280;32423;45.398;10.874;2023-02-21T11:42:31;101337.66;;;11.08;69.49
46690;BME280;32423;45.398;10.874;2023-02-21T11:45:29;101332.09;;;11.13;69.56
46690;BME280;32423;45.398;10.874;2023-02-21T11:48:22;101333.00;;;11.36;68.33
46690;BME280;32423;45.398;10.874;2023-02-21T11:51:28;101323.22;;;11.35;68.27
46690;BME280;32423;45.398;10.874;2023-02-21T11:54:23;101320.59;;;11.30;68.22
46690;BME280;32423;45.398;10.874;2023-02-21T11:57:21;101310.69;;;11.47;67.78
46690;BME280;32423;45.398;10.874;2023-02-21T12:00:19;101308.84;;;11.56;67.20
46690;BME280;32423;45.398;10.874;2023-02-21T12:15:08;101295.44;;;12.05;65.51
46690;BME280;32423;45.398;10.874;2023-02-21T12:18:03;101287.91;;;12.24;64.43
46690;BME280;32423;45.398;10.874;2023-02-21T12:27:31;101274.03;;;12.42;64.33
46690;BME280;32423;45.398;10.874;2023-02-21T12:30:45;101273.19;;;12.33;63.87
46690;BME280;32423;45.398;10.874;2023-02-21T12:33:40;101267.22;;;12.62;63.66
46690;BME280;32423;45.398;10.874;2023-02-21T12:48:43;101260.06;;;12.92;63.17
46690;BME280;32423;45.398;10.874;2023-02-21T12:51:36;101255.13;;;13.03;63.11
46690;BME280;32423;45.398;10.874;2023-02-21T12:57:25;101243.63;;;13.32;62.57
46690;BME280;32423;45.398;10.874;2023-02-21T13:00:19;101237.84;;;13.24;62.12
46690;BME280;32423;45.398;10.874;2023-02-21T13:06:10;101229.16;;;13.48;61.10
46690;BME280;32423;45.398;10.874;2023-02-21T13:15:17;101218.06;;;13.70;60.74
46690;BME280;32423;45.398;10.874;2023-02-21T13:23:58;101205.94;;;13.97;59.88
46690;BME280;32423;45.398;10.874;2023-02-21T13:33:40;101203.94;;;14.24;58.61
46690;BME280;32423;45.398;10.874;2023-02-21T13:39:31;101184.06;;;14.44;57.84
46690;BME280;32423;45.398;10.874;2023-02-21T13:42:23;101180.69;;;14.47;57.73
46690;BME280;32423;45.398;10.874;2023-02-21T13:45:14;101174.38;;;14.55;57.47
46690;BME280;32423;45.398;10.874;2023-02-21T13:48:09;101167.16;;;14.50;56.94
46690;BME280;32423;45.398;10.874;2023-02-21T13:51:02;101167.06;;;14.68;56.81
46690;BME280;32423;45.398;10.874;2023-02-21T13:54:05;101160.91;;;14.71;56.27
46690;BME280;32423;45.398;10.874;2023-02-21T13:56:58;101157.31;;;14.79;56.41
46690;BME280;32423;45.398;10.874;2023-02-21T13:59:54;101147.97;;;14.80;56.57
46690;BME280;32423;45.398;10.874;2023-02-21T14:02:45;101152.50;;;14.76;56.09
46690;BME280;32423;45.398;10.874;2023-02-21T14:08:44;101144.63;;;14.95;55.98
46690;BME280;32423;45.398;10.874;2023-02-21T14:11:38;101137.50;;;15.03;55.21
46690;BME280;32423;45.398;10.874;2023-02-21T14:14:32;101144.09;;;15.02;55.33
46690;BME280;32423;45.398;10.874;2023-02-21T14:17:29;101139.34;;;14.90;55.57
46690;BME280;32423;45.398;10.874;2023-02-21T14:20:21;101133.94;;;15.02;55.12
46690;BME280;32423;45.398;10.874;2023-02-21T14:23:13;101128.50;;;15.14;55.24
46690;BME280;32423;45.398;10.874;2023-02-21T14:26:05;101130.84;;;15.24;54.31
46690;BME280;32423;45.398;10.874;2023-02-21T14:29:00;101130.13;;;15.15;54.47
46690;BME280;32423;45.398;10.874;2023-02-21T14:31:54;101124.44;;;14.99;55.15
46690;BME280;32423;45.398;10.874;2023-02-21T14:34:48;101137.13;;;15.04;54.70
46690;BME280;32423;45.398;10.874;2023-02-21T14:37:42;101130.81;;;15.12;54.43
46690;BME280;32423;45.398;10.874;2023-02-21T14:43:48;101129.13;;;14.99;54.96
46690;BME280;32423;45.398;10.874;2023-02-21T14:49:35;101131.41;;;15.18;54.84
46690;BME280;32423;45.398;10.874;2023-02-21T14:56:03;101125.63;;;15.31;54.83
46690;BME280;32423;45.398;10.874;2023-02-21T15:08:19;101121.09;;;14.94;55.93
46690;BME280;32423;45.398;10.874;2023-02-21T15:11:15;101124.03;;;15.10;55.57
46690;BME280;32423;45.398;10.874;2023-02-21T15:14:17;101118.25;;;15.11;55.46
46690;BME280;32423;45.398;10.874;2023-02-21T15:17:18;101116.50;;;15.07;55.38
46690;BME280;32423;45.398;10.874;2023-02-21T15:20:12;101117.22;;;15.16;55.37
46690;BME280;32423;45.398;10.874;2023-02-21T15:23:11;101108.91;;;15.24;55.28
46690;BME280;32423;45.398;10.874;2023-02-21T15:26:15;101118.50;;;15.18;55.37
46690;BME280;32423;45.398;10.874;2023-02-21T15:29:15;101113.25;;;15.13;55.30
46690;BME280;32423;45.398;10.874;2023-02-21T15:32:08;101113.97;;;15.02;55.49
46690;BME280;32423;45.398;10.874;2023-02-21T15:35:03;101115.50;;;15.11;55.39
46690;BME280;32423;45.398;10.874;2023-02-21T15:37:56;101114.31;;;15.00;55.64
46690;BME280;32423;45.398;10.874;2023-02-21T15:40:49;101112.75;;;15.11;55.41
46690;BME280;32423;45.398;10.874;2023-02-21T15:43:47;101112.63;;;15.08;55.48
46690;BME280;32423;45.398;10.874;2023-02-21T15:46:50;101115.09;;;15.21;55.06
46690;BME280;32423;45.398;10.874;2023-02-21T15:49:44;101112.69;;;14.99;55.39
46690;BME280;32423;45.398;10.874;2023-02-21T15:52:36;101117.25;;;14.74;56.16
46690;BME280;32423;45.398;10.874;2023-02-21T15:55:29;101110.53;;;14.63;56.45
46690;BME280;32423;45.398;10.874;2023-02-21T15:58:22;101115.97;;;14.72;56.63
46690;BME280;32423;45.398;10.874;2023-02-21T16:01:15;101112.03;;;14.61;56.19
46690;BME280;32423;45.398;10.874;2023-02-21T16:04:18;101111.28;;;14.51;56.93
46690;BME280;32423;45.398;10.874;2023-02-21T16:07:29;101116.88;;;14.55;56.61
46690;BME280;32423;45.398;10.874;2023-02-21T16:10:22;101114.94;;;14.26;57.23
46690;BME280;32423;45.398;10.874;2023-02-21T16:13:15;101112.47;;;14.04;57.76
46690;BME280;32423;45.398;10.874;2023-02-21T16:16:07;101120.66;;;14.04;57.91
46690;BME280;32423;45.398;10.874;2023-02-21T16:18:59;101116.06;;;13.87;58.32
46690;BME280;32423;45.398;10.874;2023-02-21T16:21:49;101123.00;;;13.85;58.57
46690;BME280;32423;45.398;10.874;2023-02-21T16:24:38;101123.19;;;13.80;58.94
46690;BME280;32423;45.398;10.874;2023-02-21T16:27:30;101117.75;;;13.62;59.65
46690;BME280;32423;45.398;10.874;2023-02-21T16:30:22;101120.84;;;13.52;59.87
46690;BME280;32423;45.398;10.874;2023-02-21T16:33:09;101129.72;;;13.41;60.17
46690;BME280;32423;45.398;10.874;2023-02-21T16:36:03;101130.97;;;13.43;60.21
46690;BME280;32423;45.398;10.874;2023-02-21T16:38:56;101125.38;;;13.31;60.61
46690;BME280;32423;45.398;10.874;2023-02-21T16:41:48;101129.38;;;13.51;60.38
46690;BME280;32423;45.398;10.874;2023-02-21T16:44:40;101131.00;;;13.35;60.49
46690;BME280;32423;45.398;10.874;2023-02-21T16:47:33;101137.09;;;13.32;60.79
46690;BME280;32423;45.398;10.874;2023-02-21T16:50:28;101138.56;;;13.20;60.64
46690;BME280;32423;45.398;10.874;2023-02-21T16:53:16;101131.47;;;13.02;61.17
46690;BME280;32423;45.398;10.874;2023-02-21T16:56:08;101138.03;;;13.01;61.11
46690;BME280;32423;45.398;10.874;2023-02-21T16:58:57;101143.97;;;12.86;61.70
46690;BME280;32423;45.398;10.874;2023-02-21T17:01:49;101138.50;;;12.77;61.77
46690;BME280;32423;45.398;10.874;2023-02-21T17:04:41;101141.91;;;12.74;62.21
46690;BME280;32423;45.398;10.874;2023-02-21T17:07:33;101141.91;;;12.74;62.23
46690;BME280;32423;45.398;10.874;2023-02-21T17:10:25;101139.00;;;12.79;62.13
46690;BME280;32423;45.398;10.874;2023-02-21T17:13:17;101140.94;;;12.79;62.29
46690;BME280;32423;45.398;10.874;2023-02-21T17:16:04;101149.44;;;12.86;61.85